T Ville, Kentucky
Current Conditions -  °F | °C
As of 4:55 PM on Thursday 27 Nov 2014 (Local Time) from KGLW Reporting Station
Overcast Overcast  
Wind Chill: 23°   Ceiling: 1800
Heat Index: 30°   Visibility: 10mi
Dew Point: 23°   Wind: 7mph
Humidity: 77%   Direction: 300°WNW
Pressure: 30.44"   Gusts: NA
Location:  36.7279°N, 85.6843°W
Report Text: KGLW 272255Z AUTO 30006KT 10SM OVC018 M01/M05 A3044 RMK AO2 T10131048
Loading
Personal Weather Stations






























Interactive Weather Map New forecast layout! Learn more

10-Day Weather Forecast

Advertisements
Track Severe Weather on mobile